sensor_id;sensor_type;location;lat;lon;timestamp;pressure;altitude;pressure_sealevel;temperature
31528;BMP280;10206;48.012;10.030;2022-07-29T00:00:55;94847.59;;;21.32
31528;BMP280;10206;48.012;10.030;2022-07-29T00:03:21;94846.28;;;21.33
31528;BMP280;10206;48.012;10.030;2022-07-29T00:05:47;94847.47;;;21.48
31528;BMP280;10206;48.012;10.030;2022-07-29T00:08:13;94847.97;;;21.22
31528;BMP280;10206;48.012;10.030;2022-07-29T00:10:42;94847.19;;;21.20
31528;BMP280;10206;48.012;10.030;2022-07-29T00:13:08;94844.09;;;21.12
31528;BMP280;10206;48.012;10.030;2022-07-29T00:15:35;94844.84;;;21.12
31528;BMP280;10206;48.012;10.030;2022-07-29T00:18:01;94837.03;;;21.26
31528;BMP280;10206;48.012;10.030;2022-07-29T00:20:27;94839.56;;;21.40
31528;BMP280;10206;48.012;10.030;2022-07-29T00:22:53;94822.44;;;21.26
31528;BMP280;10206;48.012;10.030;2022-07-29T00:25:19;94827.41;;;21.29
31528;BMP280;10206;48.012;10.030;2022-07-29T00:27:45;94836.88;;;21.22
31528;BMP280;10206;48.012;10.030;2022-07-29T00:30:12;94824.91;;;21.18
31528;BMP280;10206;48.012;10.030;2022-07-29T00:32:38;94829.16;;;21.21
31528;BMP280;10206;48.012;10.030;2022-07-29T00:35:05;94811.13;;;21.20
31528;BMP280;10206;48.012;10.030;2022-07-29T00:37:50;94806.19;;;21.38
31528;BMP280;10206;48.012;10.030;2022-07-29T00:40:16;94807.81;;;21.45
31528;BMP280;10206;48.012;10.030;2022-07-29T00:42:47;94795.50;;;21.50
31528;BMP280;10206;48.012;10.030;2022-07-29T00:45:14;94792.59;;;21.46
31528;BMP280;10206;48.012;10.030;2022-07-29T00:47:40;94789.03;;;21.24
31528;BMP280;10206;48.012;10.030;2022-07-29T00:50:09;94791.31;;;21.49
31528;BMP280;10206;48.012;10.030;2022-07-29T00:52:38;94794.69;;;21.26
31528;BMP280;10206;48.012;10.030;2022-07-29T00:55:07;94794.88;;;20.93
31528;BMP280;10206;48.012;10.030;2022-07-29T00:57:34;94779.56;;;20.92
31528;BMP280;10206;48.012;10.030;2022-07-29T01:00:00;94787.47;;;20.80
31528;BMP280;10206;48.012;10.030;2022-07-29T01:02:27;94786.22;;;20.83
31528;BMP280;10206;48.012;10.030;2022-07-29T01:04:53;94781.44;;;20.85
31528;BMP280;10206;48.012;10.030;2022-07-29T01:07:20;94783.22;;;20.77
31528;BMP280;10206;48.012;10.030;2022-07-29T01:09:46;94782.00;;;20.62
31528;BMP280;10206;48.012;10.030;2022-07-29T01:12:18;94778.41;;;20.60
31528;BMP280;10206;48.012;10.030;2022-07-29T01:14:46;94771.53;;;20.61
31528;BMP280;10206;48.012;10.030;2022-07-29T01:17:20;94768.94;;;20.47
31528;BMP280;10206;48.012;10.030;2022-07-29T01:31:03;94759.28;;;20.48
31528;BMP280;10206;48.012;10.030;2022-07-29T01:33:32;94755.63;;;20.43
31528;BMP280;10206;48.012;10.030;2022-07-29T01:36:31;94758.69;;;20.32
31528;BMP280;10206;48.012;10.030;2022-07-29T01:39:28;94763.66;;;20.18
31528;BMP280;10206;48.012;10.030;2022-07-29T01:42:27;94763.66;;;20.18
31528;BMP280;10206;48.012;10.030;2022-07-29T01:50:34;94753.41;;;19.85
31528;BMP280;10206;48.012;10.030;2022-07-29T01:53:05;94754.75;;;19.84
31528;BMP280;10206;48.012;10.030;2022-07-29T01:55:36;94746.44;;;19.84
31528;BMP280;10206;48.012;10.030;2022-07-29T01:58:05;94741.06;;;19.88
31528;BMP280;10206;48.012;10.030;2022-07-29T02:00:33;94745.56;;;19.80
31528;BMP280;10206;48.012;10.030;2022-07-29T02:03:02;94736.00;;;19.83
31528;BMP280;10206;48.012;10.030;2022-07-29T02:05:31;94729.78;;;19.82
31528;BMP280;10206;48.012;10.030;2022-07-29T02:07:59;94730.34;;;19.79
31528;BMP280;10206;48.012;10.030;2022-07-29T02:10:29;94729.59;;;19.61
31528;BMP280;10206;48.012;10.030;2022-07-29T02:12:57;94729.03;;;19.64
31528;BMP280;10206;48.012;10.030;2022-07-29T02:15:28;94728.13;;;19.42
31528;BMP280;10206;48.012;10.030;2022-07-29T02:18:30;94727.88;;;19.54
31528;BMP280;10206;48.012;10.030;2022-07-29T02:20:58;94723.00;;;19.52
31528;BMP280;10206;48.012;10.030;2022-07-29T02:23:25;94725.78;;;19.70
31528;BMP280;10206;48.012;10.030;2022-07-29T02:25:56;94719.41;;;19.65
31528;BMP280;10206;48.012;10.030;2022-07-29T02:28:28;94719.41;;;19.65
31528;BMP280;10206;48.012;10.030;2022-07-29T02:30:58;94720.47;;;19.58
31528;BMP280;10206;48.012;10.030;2022-07-29T02:33:26;94716.03;;;19.51
31528;BMP280;10206;48.012;10.030;2022-07-29T02:35:52;94714.63;;;19.50
31528;BMP280;10206;48.012;10.030;2022-07-29T02:38:20;94708.59;;;19.38
31528;BMP280;10206;48.012;10.030;2022-07-29T02:41:11;94708.38;;;19.50
31528;BMP280;10206;48.012;10.030;2022-07-29T02:43:40;94707.91;;;19.55
31528;BMP280;10206;48.012;10.030;2022-07-29T02:46:11;94707.75;;;19.51
31528;BMP280;10206;48.012;10.030;2022-07-29T02:48:43;94708.16;;;19.44
31528;BMP280;10206;48.012;10.030;2022-07-29T02:51:18;94706.09;;;19.44
31528;BMP280;10206;48.012;10.030;2022-07-29T02:53:51;94700.75;;;19.32
31528;BMP280;10206;48.012;10.030;2022-07-29T02:56:25;94701.84;;;19.25
31528;BMP280;10206;48.012;10.030;2022-07-29T02:58:58;94699.19;;;19.27
31528;BMP280;10206;48.012;10.030;2022-07-29T03:01:27;94692.84;;;19.25
31528;BMP280;10206;48.012;10.030;2022-07-29T03:03:56;94689.09;;;19.34
31528;BMP280;10206;48.012;10.030;2022-07-29T03:06:24;94688.91;;;19.30
31528;BMP280;10206;48.012;10.030;2022-07-29T03:08:51;94695.94;;;19.33
31528;BMP280;10206;48.012;10.030;2022-07-29T03:11:18;94697.28;;;19.32
31528;BMP280;10206;48.012;10.030;2022-07-29T03:13:45;94701.38;;;19.31
31528;BMP280;10206;48.012;10.030;2022-07-29T03:16:12;94696.88;;;19.22
31528;BMP280;10206;48.012;10.030;2022-07-29T03:18:39;94691.16;;;19.18
31528;BMP280;10206;48.012;10.030;2022-07-29T03:21:06;94693.78;;;19.31
31528;BMP280;10206;48.012;10.030;2022-07-29T03:23:32;94693.94;;;19.35
31528;BMP280;10206;48.012;10.030;2022-07-29T03:25:58;94694.03;;;19.20
31528;BMP280;10206;48.012;10.030;2022-07-29T03:28:25;94696.69;;;19.18
31528;BMP280;10206;48.012;10.030;2022-07-29T03:30:53;94689.59;;;19.13
31528;BMP280;10206;48.012;10.030;2022-07-29T03:33:19;94692.69;;;19.05
31528;BMP280;10206;48.012;10.030;2022-07-29T03:35:46;94687.81;;;19.04
31528;BMP280;10206;48.012;10.030;2022-07-29T03:38:12;94687.44;;;18.96
31528;BMP280;10206;48.012;10.030;2022-07-29T03:40:46;94692.84;;;18.92
31528;BMP280;10206;48.012;10.030;2022-07-29T03:43:15;94695.34;;;18.86
31528;BMP280;10206;48.012;10.030;2022-07-29T03:45:49;94699.28;;;18.81
31528;BMP280;10206;48.012;10.030;2022-07-29T03:48:19;94694.38;;;18.79
31528;BMP280;10206;48.012;10.030;2022-07-29T03:50:46;94690.16;;;18.78
31528;BMP280;10206;48.012;10.030;2022-07-29T03:53:13;94703.22;;;18.76
31528;BMP280;10206;48.012;10.030;2022-07-29T03:55:45;94701.72;;;18.73
31528;BMP280;10206;48.012;10.030;2022-07-29T03:58:14;94699.09;;;18.77
31528;BMP280;10206;48.012;10.030;2022-07-29T04:00:41;94703.09;;;18.74
31528;BMP280;10206;48.012;10.030;2022-07-29T04:03:07;94704.16;;;18.67
31528;BMP280;10206;48.012;10.030;2022-07-29T04:05:34;94701.84;;;18.77
31528;BMP280;10206;48.012;10.030;2022-07-29T04:08:00;94707.28;;;18.90
31528;BMP280;10206;48.012;10.030;2022-07-29T04:10:26;94707.34;;;18.92
31528;BMP280;10206;48.012;10.030;2022-07-29T04:12:52;94711.91;;;19.01
31528;BMP280;10206;48.012;10.030;2022-07-29T04:15:19;94700.13;;;19.01
31528;BMP280;10206;48.012;10.030;2022-07-29T04:17:45;94705.66;;;19.01
31528;BMP280;10206;48.012;10.030;2022-07-29T04:20:11;94704.94;;;19.00
31528;BMP280;10206;48.012;10.030;2022-07-29T04:22:39;94708.69;;;19.07
31528;BMP280;10206;48.012;10.030;2022-07-29T04:25:06;94708.94;;;19.13
31528;BMP280;10206;48.012;10.030;2022-07-29T04:27:32;94713.47;;;19.22
31528;BMP280;10206;48.012;10.030;2022-07-29T04:29:58;94713.03;;;19.45
31528;BMP280;10206;48.012;10.030;2022-07-29T04:32:25;94714.53;;;19.83
31528;BMP280;10206;48.012;10.030;2022-07-29T04:34:51;94715.34;;;20.03
31528;BMP280;10206;48.012;10.030;2022-07-29T04:37:18;94717.16;;;20.34
31528;BMP280;10206;48.012;10.030;2022-07-29T04:39:44;94716.50;;;20.73
31528;BMP280;10206;48.012;10.030;2022-07-29T04:42:10;94713.22;;;21.17
31528;BMP280;10206;48.012;10.030;2022-07-29T04:44:37;94711.63;;;21.54
31528;BMP280;10206;48.012;10.030;2022-07-29T04:47:03;94719.25;;;22.20
31528;BMP280;10206;48.012;10.030;2022-07-29T04:49:29;94712.44;;;22.48
31528;BMP280;10206;48.012;10.030;2022-07-29T04:51:55;94722.88;;;23.01
31528;BMP280;10206;48.012;10.030;2022-07-29T04:54:21;94721.81;;;23.40
31528;BMP280;10206;48.012;10.030;2022-07-29T04:56:47;94720.44;;;23.41
31528;BMP280;10206;48.012;10.030;2022-07-29T04:59:14;94713.81;;;23.86
31528;BMP280;10206;48.012;10.030;2022-07-29T05:01:40;94709.91;;;23.67
31528;BMP280;10206;48.012;10.030;2022-07-29T05:04:06;94720.88;;;24.56
31528;BMP280;10206;48.012;10.030;2022-07-29T05:06:32;94717.75;;;25.11
31528;BMP280;10206;48.012;10.030;2022-07-29T05:08:58;94725.34;;;25.48
31528;BMP280;10206;48.012;10.030;2022-07-29T05:11:24;94721.44;;;25.24
31528;BMP280;10206;48.012;10.030;2022-07-29T05:13:50;94723.41;;;25.17
31528;BMP280;10206;48.012;10.030;2022-07-29T05:16:16;94717.78;;;24.75
31528;BMP280;10206;48.012;10.030;2022-07-29T05:18:42;94720.25;;;23.92
31528;BMP280;10206;48.012;10.030;2022-07-29T05:21:08;94720.63;;;23.78
31528;BMP280;10206;48.012;10.030;2022-07-29T05:23:35;94720.63;;;23.78
31528;BMP280;10206;48.012;10.030;2022-07-29T05:26:01;94732.22;;;23.99
31528;BMP280;10206;48.012;10.030;2022-07-29T05:28:27;94741.81;;;23.62
31528;BMP280;10206;48.012;10.030;2022-07-29T05:30:53;94730.41;;;23.50
31528;BMP280;10206;48.012;10.030;2022-07-29T05:33:19;94734.88;;;23.63
31528;BMP280;10206;48.012;10.030;2022-07-29T05:35:46;94732.59;;;23.55
31528;BMP280;10206;48.012;10.030;2022-07-29T05:38:12;94725.97;;;23.68
31528;BMP280;10206;48.012;10.030;2022-07-29T05:40:38;94737.41;;;23.51
31528;BMP280;10206;48.012;10.030;2022-07-29T05:43:04;94742.72;;;23.70
31528;BMP280;10206;48.012;10.030;2022-07-29T05:45:30;94744.31;;;23.50
31528;BMP280;10206;48.012;10.030;2022-07-29T05:47:56;94744.25;;;23.75
31528;BMP280;10206;48.012;10.030;2022-07-29T05:50:23;94743.28;;;24.26
31528;BMP280;10206;48.012;10.030;2022-07-29T05:52:49;94739.75;;;24.24
31528;BMP280;10206;48.012;10.030;2022-07-29T05:55:15;94733.81;;;24.39
31528;BMP280;10206;48.012;10.030;2022-07-29T05:57:41;94744.09;;;24.31
31528;BMP280;10206;48.012;10.030;2022-07-29T06:00:09;94741.34;;;24.01
31528;BMP280;10206;48.012;10.030;2022-07-29T06:02:36;94747.97;;;23.86
31528;BMP280;10206;48.012;10.030;2022-07-29T06:05:02;94745.88;;;23.57
31528;BMP280;10206;48.012;10.030;2022-07-29T06:07:28;94749.22;;;23.79
31528;BMP280;10206;48.012;10.030;2022-07-29T06:09:54;94753.78;;;23.66
31528;BMP280;10206;48.012;10.030;2022-07-29T06:12:20;94754.19;;;23.27
31528;BMP280;10206;48.012;10.030;2022-07-29T06:14:46;94758.19;;;23.48
31528;BMP280;10206;48.012;10.030;2022-07-29T06:17:12;94760.13;;;23.69
31528;BMP280;10206;48.012;10.030;2022-07-29T06:19:39;94755.06;;;23.61
31528;BMP280;10206;48.012;10.030;2022-07-29T06:22:05;94748.53;;;23.51
31528;BMP280;10206;48.012;10.030;2022-07-29T06:24:31;94755.16;;;23.38
31528;BMP280;10206;48.012;10.030;2022-07-29T06:26:57;94761.41;;;23.36
31528;BMP280;10206;48.012;10.030;2022-07-29T06:29:23;94762.63;;;23.29
31528;BMP280;10206;48.012;10.030;2022-07-29T06:31:50;94759.75;;;23.27
31528;BMP280;10206;48.012;10.030;2022-07-29T06:34:16;94763.41;;;23.34
31528;BMP280;10206;48.012;10.030;2022-07-29T06:36:43;94763.28;;;23.02
31528;BMP280;10206;48.012;10.030;2022-07-29T06:39:09;94764.75;;;22.80
31528;BMP280;10206;48.012;10.030;2022-07-29T06:41:35;94767.22;;;22.93
31528;BMP280;10206;48.012;10.030;2022-07-29T06:44:02;94775.72;;;22.99
31528;BMP280;10206;48.012;10.030;2022-07-29T06:46:28;94774.25;;;22.96
31528;BMP280;10206;48.012;10.030;2022-07-29T06:48:54;94770.78;;;22.72
31528;BMP280;10206;48.012;10.030;2022-07-29T06:51:21;94776.44;;;23.00
31528;BMP280;10206;48.012;10.030;2022-07-29T06:53:47;94772.25;;;23.01
31528;BMP280;10206;48.012;10.030;2022-07-29T06:56:13;94770.19;;;23.27
31528;BMP280;10206;48.012;10.030;2022-07-29T06:58:40;94778.53;;;23.27
31528;BMP280;10206;48.012;10.030;2022-07-29T07:01:06;94785.53;;;23.28
31528;BMP280;10206;48.012;10.030;2022-07-29T07:03:32;94786.50;;;23.38
31528;BMP280;10206;48.012;10.030;2022-07-29T07:05:59;94783.78;;;23.15
31528;BMP280;10206;48.012;10.030;2022-07-29T07:08:25;94783.47;;;23.28
31528;BMP280;10206;48.012;10.030;2022-07-29T07:10:52;94783.88;;;23.44
31528;BMP280;10206;48.012;10.030;2022-07-29T07:13:18;94790.09;;;23.70
31528;BMP280;10206;48.012;10.030;2022-07-29T07:15:45;94791.19;;;23.59
31528;BMP280;10206;48.012;10.030;2022-07-29T07:18:14;94784.56;;;23.72
31528;BMP280;10206;48.012;10.030;2022-07-29T07:20:41;94790.41;;;23.84
31528;BMP280;10206;48.012;10.030;2022-07-29T07:23:08;94789.88;;;23.90
31528;BMP280;10206;48.012;10.030;2022-07-29T07:25:34;94787.81;;;24.22
31528;BMP280;10206;48.012;10.030;2022-07-29T07:28:00;94794.88;;;24.59
31528;BMP280;10206;48.012;10.030;2022-07-29T07:30:27;94797.56;;;24.88
31528;BMP280;10206;48.012;10.030;2022-07-29T07:32:53;94801.47;;;24.73
31528;BMP280;10206;48.012;10.030;2022-07-29T07:35:20;94809.69;;;25.01
31528;BMP280;10206;48.012;10.030;2022-07-29T07:37:46;94808.66;;;25.20
31528;BMP280;10206;48.012;10.030;2022-07-29T07:40:13;94811.97;;;25.50
31528;BMP280;10206;48.012;10.030;2022-07-29T07:42:40;94805.47;;;25.79
31528;BMP280;10206;48.012;10.030;2022-07-29T07:45:07;94808.59;;;26.01
31528;BMP280;10206;48.012;10.030;2022-07-29T07:47:36;94802.16;;;25.91
31528;BMP280;10206;48.012;10.030;2022-07-29T07:50:03;94809.16;;;25.92
31528;BMP280;10206;48.012;10.030;2022-07-29T07:52:29;94811.66;;;26.19
31528;BMP280;10206;48.012;10.030;2022-07-29T07:54:55;94808.75;;;26.63
31528;BMP280;10206;48.012;10.030;2022-07-29T07:57:21;94806.69;;;26.66
31528;BMP280;10206;48.012;10.030;2022-07-29T07:59:48;94814.59;;;26.81
31528;BMP280;10206;48.012;10.030;2022-07-29T08:02:14;94794.38;;;26.89
31528;BMP280;10206;48.012;10.030;2022-07-29T08:04:40;94806.63;;;27.25
31528;BMP280;10206;48.012;10.030;2022-07-29T08:07:07;94802.13;;;26.92
31528;BMP280;10206;48.012;10.030;2022-07-29T08:09:35;94806.34;;;26.97
31528;BMP280;10206;48.012;10.030;2022-07-29T08:12:01;94808.66;;;27.15
31528;BMP280;10206;48.012;10.030;2022-07-29T08:14:32;94814.75;;;26.97
31528;BMP280;10206;48.012;10.030;2022-07-29T08:16:59;94817.59;;;26.99
31528;BMP280;10206;48.012;10.030;2022-07-29T08:19:25;94812.19;;;27.19
31528;BMP280;10206;48.012;10.030;2022-07-29T08:21:51;94815.16;;;27.33
31528;BMP280;10206;48.012;10.030;2022-07-29T08:24:19;94812.94;;;27.22
31528;BMP280;10206;48.012;10.030;2022-07-29T08:27:03;94822.53;;;27.76
31528;BMP280;10206;48.012;10.030;2022-07-29T08:29:30;94822.97;;;28.47
31528;BMP280;10206;48.012;10.030;2022-07-29T08:31:56;94820.13;;;28.41
31528;BMP280;10206;48.012;10.030;2022-07-29T08:34:22;94823.72;;;28.57
31528;BMP280;10206;48.012;10.030;2022-07-29T08:36:48;94835.16;;;29.09
31528;BMP280;10206;48.012;10.030;2022-07-29T08:39:14;94828.84;;;29.19
31528;BMP280;10206;48.012;10.030;2022-07-29T08:41:40;94830.94;;;29.18
31528;BMP280;10206;48.012;10.030;2022-07-29T08:44:06;94837.22;;;28.99
31528;BMP280;10206;48.012;10.030;2022-07-29T08:46:33;94827.47;;;29.38
31528;BMP280;10206;48.012;10.030;2022-07-29T08:48:59;94827.97;;;28.64
31528;BMP280;10206;48.012;10.030;2022-07-29T08:51:26;94830.63;;;28.34
31528;BMP280;10206;48.012;10.030;2022-07-29T08:53:53;94826.47;;;28.47
31528;BMP280;10206;48.012;10.030;2022-07-29T08:56:21;94831.16;;;28.06
31528;BMP280;10206;48.012;10.030;2022-07-29T08:58:48;94825.63;;;28.19
31528;BMP280;10206;48.012;10.030;2022-07-29T09:01:20;94833.75;;;27.78
31528;BMP280;10206;48.012;10.030;2022-07-29T09:03:47;94836.97;;;27.47
31528;BMP280;10206;48.012;10.030;2022-07-29T09:06:18;94844.16;;;27.64
31528;BMP280;10206;48.012;10.030;2022-07-29T09:08:45;94842.47;;;27.33
31528;BMP280;10206;48.012;10.030;2022-07-29T09:11:12;94842.41;;;27.29
31528;BMP280;10206;48.012;10.030;2022-07-29T09:13:39;94861.94;;;27.96
31528;BMP280;10206;48.012;10.030;2022-07-29T09:16:06;94856.69;;;28.49
31528;BMP280;10206;48.012;10.030;2022-07-29T09:18:39;94855.69;;;28.08
31528;BMP280;10206;48.012;10.030;2022-07-29T09:21:12;94851.25;;;28.95
31528;BMP280;10206;48.012;10.030;2022-07-29T09:24:11;94857.72;;;29.53
31528;BMP280;10206;48.012;10.030;2022-07-29T09:26:40;94852.00;;;28.99
31528;BMP280;10206;48.012;10.030;2022-07-29T09:29:11;94846.44;;;29.33
31528;BMP280;10206;48.012;10.030;2022-07-29T09:31:40;94848.50;;;29.13
31528;BMP280;10206;48.012;10.030;2022-07-29T09:34:07;94846.47;;;29.37
31528;BMP280;10206;48.012;10.030;2022-07-29T09:36:44;94848.56;;;29.61
31528;BMP280;10206;48.012;10.030;2022-07-29T09:39:12;94842.94;;;29.69
31528;BMP280;10206;48.012;10.030;2022-07-29T09:41:49;94842.22;;;29.84
31528;BMP280;10206;48.012;10.030;2022-07-29T09:44:19;94845.78;;;29.65
31528;BMP280;10206;48.012;10.030;2022-07-29T09:47:00;94842.94;;;29.39
31528;BMP280;10206;48.012;10.030;2022-07-29T09:49:55;94837.31;;;30.13
31528;BMP280;10206;48.012;10.030;2022-07-29T09:52:27;94835.13;;;28.97
31528;BMP280;10206;48.012;10.030;2022-07-29T09:55:04;94837.31;;;29.31
31528;BMP280;10206;48.012;10.030;2022-07-29T09:57:30;94835.94;;;29.46
31528;BMP280;10206;48.012;10.030;2022-07-29T10:02:31;94846.47;;;29.77
31528;BMP280;10206;48.012;10.030;2022-07-29T10:04:58;94838.03;;;29.61
31528;BMP280;10206;48.012;10.030;2022-07-29T10:07:25;94841.53;;;29.48
31528;BMP280;10206;48.012;10.030;2022-07-29T10:10:00;94849.97;;;29.50
31528;BMP280;10206;48.012;10.030;2022-07-29T10:12:27;94849.28;;;29.79
31528;BMP280;10206;48.012;10.030;2022-07-29T10:14:53;94844.28;;;29.24
31528;BMP280;10206;48.012;10.030;2022-07-29T10:17:21;94847.81;;;29.10
31528;BMP280;10206;48.012;10.030;2022-07-29T10:19:47;94838.47;;;28.60
31528;BMP280;10206;48.012;10.030;2022-07-29T10:22:14;94838.63;;;28.88
31528;BMP280;10206;48.012;10.030;2022-07-29T10:24:40;94834.91;;;28.53
31528;BMP280;10206;48.012;10.030;2022-07-29T10:27:08;94842.75;;;28.73
31528;BMP280;10206;48.012;10.030;2022-07-29T10:29:34;94838.59;;;28.92
31528;BMP280;10206;48.012;10.030;2022-07-29T10:32:32;94834.31;;;28.77
31528;BMP280;10206;48.012;10.030;2022-07-29T10:44:12;94839.88;;;28.59
31528;BMP280;10206;48.012;10.030;2022-07-29T10:46:40;94837.91;;;28.87
31528;BMP280;10206;48.012;10.030;2022-07-29T10:49:08;94839.97;;;28.81
31528;BMP280;10206;48.012;10.030;2022-07-29T10:54:42;94851.28;;;27.81
31528;BMP280;10206;48.012;10.030;2022-07-29T10:57:17;94839.13;;;28.46
31528;BMP280;10206;48.012;10.030;2022-07-29T11:02:48;94843.91;;;28.28
31528;BMP280;10206;48.012;10.030;2022-07-29T11:05:21;94840.44;;;28.27
31528;BMP280;10206;48.012;10.030;2022-07-29T11:10:44;94831.53;;;27.63
31528;BMP280;10206;48.012;10.030;2022-07-29T11:13:11;94818.41;;;27.85
31528;BMP280;10206;48.012;10.030;2022-07-29T11:15:55;94806.44;;;27.83
31528;BMP280;10206;48.012;10.030;2022-07-29T11:18:23;94810.63;;;27.80
31528;BMP280;10206;48.012;10.030;2022-07-29T11:20:51;94813.47;;;27.82
31528;BMP280;10206;48.012;10.030;2022-07-29T11:23:29;94819.44;;;27.42
31528;BMP280;10206;48.012;10.030;2022-07-29T11:26:18;94825.56;;;27.25
31528;BMP280;10206;48.012;10.030;2022-07-29T11:29:03;94827.84;;;27.44
31528;BMP280;10206;48.012;10.030;2022-07-29T11:31:39;94824.75;;;27.94
31528;BMP280;10206;48.012;10.030;2022-07-29T11:34:28;94815.72;;;28.03
31528;BMP280;10206;48.012;10.030;2022-07-29T11:39:41;94814.28;;;28.02
31528;BMP280;10206;48.012;10.030;2022-07-29T11:47:28;94811.78;;;28.59
31528;BMP280;10206;48.012;10.030;2022-07-29T11:49:59;94802.72;;;28.64
31528;BMP280;10206;48.012;10.030;2022-07-29T11:52:34;94790.53;;;28.14
31528;BMP280;10206;48.012;10.030;2022-07-29T11:55:05;94790.47;;;28.05
31528;BMP280;10206;48.012;10.030;2022-07-29T11:57:32;94791.09;;;27.92
31528;BMP280;10206;48.012;10.030;2022-07-29T11:59:59;94787.44;;;27.73
31528;BMP280;10206;48.012;10.030;2022-07-29T12:02:41;94774.25;;;27.96
31528;BMP280;10206;48.012;10.030;2022-07-29T12:05:09;94777.19;;;28.12
31528;BMP280;10206;48.012;10.030;2022-07-29T12:07:38;94782.16;;;28.24
31528;BMP280;10206;48.012;10.030;2022-07-29T12:10:05;94785.00;;;28.32
31528;BMP280;10206;48.012;10.030;2022-07-29T12:12:32;94784.88;;;28.01
31528;BMP280;10206;48.012;10.030;2022-07-29T12:15:14;94792.50;;;27.91
31528;BMP280;10206;48.012;10.030;2022-07-29T12:17:40;94797.97;;;27.71
31528;BMP280;10206;48.012;10.030;2022-07-29T12:20:07;94792.88;;;27.49
31528;BMP280;10206;48.012;10.030;2022-07-29T12:22:36;94795.59;;;27.41
31528;BMP280;10206;48.012;10.030;2022-07-29T12:25:08;94796.50;;;26.94
31528;BMP280;10206;48.012;10.030;2022-07-29T12:27:35;94792.81;;;27.47
31528;BMP280;10206;48.012;10.030;2022-07-29T12:30:06;94790.88;;;27.62
31528;BMP280;10206;48.012;10.030;2022-07-29T12:35:18;94791.88;;;28.06
31528;BMP280;10206;48.012;10.030;2022-07-29T12:37:47;94796.66;;;27.90
31528;BMP280;10206;48.012;10.030;2022-07-29T12:40:16;94801.13;;;28.27
31528;BMP280;10206;48.012;10.030;2022-07-29T12:43:34;94801.00;;;28.09
31528;BMP280;10206;48.012;10.030;2022-07-29T12:45:55;94809.63;;;28.45
31528;BMP280;10206;48.012;10.030;2022-07-29T12:48:35;94809.19;;;29.37
31528;BMP280;10206;48.012;10.030;2022-07-29T12:51:03;94807.09;;;29.73
31528;BMP280;10206;48.012;10.030;2022-07-29T12:53:30;94817.63;;;29.81
31528;BMP280;10206;48.012;10.030;2022-07-29T12:55:58;94808.47;;;29.84
31528;BMP280;10206;48.012;10.030;2022-07-29T12:58:32;94803.56;;;29.79
31528;BMP280;10206;48.012;10.030;2022-07-29T13:01:19;94808.47;;;29.99
31528;BMP280;10206;48.012;10.030;2022-07-29T13:03:56;94805.59;;;30.21
31528;BMP280;10206;48.012;10.030;2022-07-29T13:11:44;94796.41;;;30.38
31528;BMP280;10206;48.012;10.030;2022-07-29T13:14:13;94786.66;;;29.95
31528;BMP280;10206;48.012;10.030;2022-07-29T13:17:03;94790.91;;;29.84
31528;BMP280;10206;48.012;10.030;2022-07-29T13:19:38;94785.28;;;29.80
31528;BMP280;10206;48.012;10.030;2022-07-29T13:22:07;94781.78;;;29.71
31528;BMP280;10206;48.012;10.030;2022-07-29T13:24:44;94782.47;;;29.64
31528;BMP280;10206;48.012;10.030;2022-07-29T13:27:10;94781.00;;;30.19
31528;BMP280;10206;48.012;10.030;2022-07-29T13:29:39;94771.22;;;29.66
31528;BMP280;10206;48.012;10.030;2022-07-29T13:32:06;94774.00;;;29.86
31528;BMP280;10206;48.012;10.030;2022-07-29T13:34:33;94766.88;;;30.21
31528;BMP280;10206;48.012;10.030;2022-07-29T13:36:59;94768.41;;;29.64
31528;BMP280;10206;48.012;10.030;2022-07-29T13:39:25;94765.56;;;29.82
31528;BMP280;10206;48.012;10.030;2022-07-29T13:41:51;94767.03;;;29.45
31528;BMP280;10206;48.012;10.030;2022-07-29T13:44:18;94769.06;;;29.94
31528;BMP280;10206;48.012;10.030;2022-07-29T13:46:44;94761.41;;;29.65
31528;BMP280;10206;48.012;10.030;2022-07-29T13:49:10;94766.97;;;29.91
31528;BMP280;10206;48.012;10.030;2022-07-29T13:51:37;94765.59;;;29.94
31528;BMP280;10206;48.012;10.030;2022-07-29T13:54:04;94762.63;;;30.32
31528;BMP280;10206;48.012;10.030;2022-07-29T13:56:30;94769.75;;;30.11
31528;BMP280;10206;48.012;10.030;2022-07-29T13:58:56;94757.56;;;30.63
31528;BMP280;10206;48.012;10.030;2022-07-29T14:01:23;94764.06;;;30.27
31528;BMP280;10206;48.012;10.030;2022-07-29T14:03:49;94765.56;;;30.00
31528;BMP280;10206;48.012;10.030;2022-07-29T14:06:15;94767.56;;;30.28
31528;BMP280;10206;48.012;10.030;2022-07-29T14:08:42;94759.84;;;30.28
31528;BMP280;10206;48.012;10.030;2022-07-29T14:11:08;94769.75;;;30.09
31528;BMP280;10206;48.012;10.030;2022-07-29T14:13:35;94771.75;;;30.41
31528;BMP280;10206;48.012;10.030;2022-07-29T14:16:01;94785.25;;;30.02
31528;BMP280;10206;48.012;10.030;2022-07-29T14:18:27;94786.69;;;29.87
31528;BMP280;10206;48.012;10.030;2022-07-29T14:20:53;94785.22;;;30.04
31528;BMP280;10206;48.012;10.030;2022-07-29T14:23:19;94788.09;;;30.00
31528;BMP280;10206;48.012;10.030;2022-07-29T14:25:45;94795.75;;;30.18
31528;BMP280;10206;48.012;10.030;2022-07-29T14:28:11;94787.34;;;29.96
31528;BMP280;10206;48.012;10.030;2022-07-29T14:30:38;94787.38;;;29.75
31528;BMP280;10206;48.012;10.030;2022-07-29T14:33:05;94797.19;;;30.11
31528;BMP280;10206;48.012;10.030;2022-07-29T14:35:31;94797.22;;;30.03
31528;BMP280;10206;48.012;10.030;2022-07-29T14:37:57;94800.00;;;30.01
31528;BMP280;10206;48.012;10.030;2022-07-29T14:40:24;94804.25;;;29.75
31528;BMP280;10206;48.012;10.030;2022-07-29T14:42:51;94809.91;;;29.67
31528;BMP280;10206;48.012;10.030;2022-07-29T14:45:17;94807.09;;;29.61
31528;BMP280;10206;48.012;10.030;2022-07-29T14:47:43;94809.88;;;29.69
31528;BMP280;10206;48.012;10.030;2022-07-29T14:50:10;94806.38;;;29.41
31528;BMP280;10206;48.012;10.030;2022-07-29T14:52:36;94809.22;;;29.77
31528;BMP280;10206;48.012;10.030;2022-07-29T14:55:03;94808.50;;;29.22
31528;BMP280;10206;48.012;10.030;2022-07-29T14:57:29;94813.34;;;29.00
31528;BMP280;10206;48.012;10.030;2022-07-29T14:59:56;94818.19;;;28.73